EKSP/SKS METAR and TAF weather

Enter ICAO airport designator
Station Type Date Time Source
EKSP METAR 2022/01/29 00:50 UTC NOAA

EKSP 290050Z 23015KT 5000 -RA OVC005 06/05 Q1017


Station Type Date Time Source
EKSP Decoded METAR 2022/01/29 00:50 UTC NOAA

Skrydstrup, Denmark (EKSP) 55-14N 009-16E 47M
Jan 28, 2022 - 07:50 PM EST / 2022.01.29 0050 UTC
Wind: from the SW (230 degrees) at 17 MPH (15 KT):0
Visibility: 3 mile(s):0
Sky conditions: overcast
Weather: light rain
Temperature: 42 F (6 C)
Dew Point: 41 F (5 C)
Relative Humidity: 93%
Pressure (altimeter): 30.03 in. Hg (1017 hPa)
ob: EKSP 290050Z 23015KT 5000 -RA OVC005 06/05 Q1017
cycle: 1

Station Type Date Time Source
EKSP TAF 2022/01/28 21:30 UTC NOAA

TAF EKSP 282027Z 2821/2921 24008KT 9999 FEW030 BKN100
BECMG 2821/2823 21015KT 7000 -RA BKN012
TEMPO 2823/2824 23012G25KT 4000 BKN008
BECMG 2900/2902 25015G28KT 2000 RADZ BKN003
TEMPO 2902/2906 5000 -RADZ BKN006
BECMG 2906/2908 26020G32KT 8000 NSW SCT005 BKN010
TEMPO 2908/2910 2500 -RADZ BKN004
BECMG 2910/2913 26030G50KT BKN030
TEMPO 2913/2921 SHRA SCT025TCU

Example: see airport list